createdAt,value
2023-10-16T00:02:53.673Z,4.28
2023-10-16T00:12:55.631Z,4.95
2023-10-16T00:22:57.616Z,7.55
2023-10-16T00:32:59.606Z,8.70
2023-10-16T00:43:06.287Z,5.38
2023-10-16T00:53:08.244Z,3.92
2023-10-16T01:03:11.253Z,6.03
2023-10-16T01:13:13.381Z,7.13
2023-10-16T01:23:27.210Z,6.22
2023-10-16T01:33:29.230Z,3.33
2023-10-16T01:43:31.812Z,4.15
2023-10-16T01:53:37.286Z,8.65
2023-10-16T02:03:40.098Z,7.22
2023-10-16T02:13:42.842Z,5.95
2023-10-16T02:23:46.194Z,6.10
2023-10-16T02:33:49.953Z,3.60
2023-10-16T02:43:52.058Z,7.30
2023-10-16T02:53:54.146Z,6.07
2023-10-16T03:03:56.067Z,11.48
2023-10-16T03:13:57.917Z,9.40
2023-10-16T03:24:00.277Z,12.13
2023-10-16T03:34:02.426Z,7.40
2023-10-16T03:44:04.367Z,8.77
2023-10-16T03:55:02.397Z,8.95
2023-10-16T04:05:03.028Z,7.82
2023-10-16T04:15:05.659Z,12.68
2023-10-16T04:25:07.754Z,16.52
2023-10-16T04:35:09.814Z,9.15
2023-10-16T04:45:20.907Z,7.90
2023-10-16T04:55:31.003Z,17.57
2023-10-16T05:05:32.989Z,11.63
2023-10-16T05:15:34.883Z,12.35
2023-10-16T05:25:36.861Z,29.23
2023-10-16T05:35:38.776Z,9.82
2023-10-16T05:45:40.867Z,5.15
2023-10-16T05:55:42.845Z,13.27
2023-10-16T06:05:44.805Z,8.82
2023-10-16T06:15:46.735Z,10.55
2023-10-16T06:25:48.715Z,14.00
2023-10-16T06:35:50.622Z,8.63
2023-10-16T06:45:52.934Z,10.48
2023-10-16T06:55:55.215Z,15.02
2023-10-16T07:05:57.076Z,17.25
2023-10-16T07:16:05.990Z,20.20
2023-10-16T07:26:11.797Z,17.98
2023-10-16T07:36:14.101Z,17.35
2023-10-16T07:46:16.544Z,21.35
2023-10-16T07:56:20.108Z,15.88
2023-10-16T08:06:22.059Z,24.77
2023-10-16T08:16:26.956Z,20.08
2023-10-16T08:26:30.715Z,14.20
2023-10-16T08:36:32.767Z,11.38
2023-10-16T08:46:36.711Z,25.25
2023-10-16T08:56:38.832Z,13.13
2023-10-16T09:06:40.737Z,9.77
2023-10-16T09:16:42.809Z,9.23
2023-10-16T09:26:45.690Z,12.95
2023-10-16T09:36:51.424Z,9.02
2023-10-16T09:46:53.339Z,13.82
2023-10-16T09:56:58.323Z,7.10
2023-10-16T10:07:03.692Z,14.27
2023-10-16T10:17:08.161Z,8.63
2023-10-16T10:27:11.345Z,9.75
2023-10-16T10:37:44.771Z,17.52
2023-10-16T10:47:46.987Z,6.07
2023-10-16T10:57:54.457Z,5.55
2023-10-16T11:07:58.810Z,9.23
2023-10-16T11:18:00.765Z,7.38
2023-10-16T11:28:02.986Z,9.10
2023-10-16T11:38:05.092Z,6.53
2023-10-16T11:48:08.187Z,5.65
2023-10-16T11:58:10.280Z,7.90
2023-10-16T12:08:12.552Z,8.60
2023-10-16T12:18:14.836Z,4.50
2023-10-16T12:28:16.844Z,8.68
2023-10-16T12:38:23.418Z,8.10
2023-10-16T12:48:28.141Z,8.35
2023-10-16T12:58:30.153Z,15.60
2023-10-16T13:08:32.714Z,12.88
2023-10-16T13:18:34.569Z,17.30
2023-10-16T13:28:37.588Z,7.93
2023-10-16T13:38:40.487Z,18.27
2023-10-16T13:48:43.005Z,13.38
2023-10-16T13:58:46.903Z,10.45
2023-10-16T14:08:48.942Z,5.40
2023-10-16T14:18:52.982Z,9.63
2023-10-16T14:28:54.840Z,13.63
2023-10-16T14:38:56.902Z,13.73
2023-10-16T14:48:58.769Z,22.65
2023-10-16T14:59:14.269Z,14.65
2023-10-16T15:09:17.775Z,18.63
2023-10-16T15:19:19.713Z,22.90
2023-10-16T15:29:21.805Z,16.48
2023-10-16T15:39:26.888Z,24.83
2023-10-16T15:49:38.200Z,19.98
2023-10-16T15:59:41.239Z,32.80
2023-10-16T16:09:43.243Z,49.38
2023-10-16T16:19:45.786Z,31.42
2023-10-16T16:29:47.757Z,27.15
2023-10-16T16:39:49.745Z,32.33
2023-10-16T16:49:51.820Z,30.48
2023-10-16T16:59:53.940Z,31.60
2023-10-16T17:09:56.306Z,38.83
2023-10-16T17:20:51.003Z,45.30
2023-10-16T17:30:58.543Z,71.68
2023-10-16T17:41:00.623Z,53.63
2023-10-16T17:51:04.996Z,59.85
2023-10-16T18:01:07.018Z,78.07
2023-10-16T18:11:16.918Z,177.85
2023-10-16T18:21:25.195Z,172.90
2023-10-16T18:31:40.102Z,368.52
2023-10-16T18:41:58.027Z,88.97
2023-10-16T19:02:29.762Z,68.45
2023-10-16T19:12:37.602Z,58.87
2023-10-16T19:22:40.382Z,44.30
2023-10-16T19:32:43.950Z,36.08
2023-10-16T19:42:49.069Z,44.05
2023-10-16T19:52:51.473Z,52.50
2023-10-16T20:02:55.199Z,46.05
2023-10-16T20:12:57.199Z,38.47
2023-10-16T20:23:04.655Z,47.35
2023-10-16T20:33:06.949Z,45.05
2023-10-16T20:43:09.456Z,56.88
2023-10-16T20:53:11.839Z,58.92
2023-10-16T21:03:13.856Z,75.78
2023-10-16T21:13:15.865Z,56.42
2023-10-16T21:23:17.754Z,53.47
2023-10-16T21:33:19.829Z,38.13
2023-10-16T21:43:21.857Z,36.38
2023-10-16T21:53:23.932Z,42.33
2023-10-16T22:03:26.657Z,34.30
2023-10-16T22:13:28.648Z,64.90
2023-10-16T22:23:30.487Z,87.05
2023-10-16T22:33:32.481Z,81.32
2023-10-16T22:43:34.441Z,96.82
2023-10-16T22:53:36.288Z,94.40
2023-10-16T23:03:38.232Z,111.15
2023-10-16T23:13:40.179Z,89.15
2023-10-16T23:23:42.060Z,90.28
2023-10-16T23:33:45.595Z,92.32
2023-10-16T23:43:48.486Z,97.47
2023-10-16T23:53:50.717Z,117.30
